Eleroy, IL (61027)

9:18 PM CST on February 28, 2015 (GMT -0600)
South of Lena | Change Station
CLOSE
Current Station
Personal Weather Station
Location: Lena, IL
Elevation: 919 ft
Nearby Weather Stations

Elev 919 ft 42.34 °N, 89.81 °W | Updated 6 minutes ago

Overcast
Overcast
12.3 °F
Feels Like 12 °F
N
2.0
Wind Variable Wind from SE
Gusts 3.0 mph

Today
High -- | Low -- °F
--% Chance of Precip.
Yesterday
High -- | Low -- °F
Precip. -- in
6:36 AM 5:47 PM
Waxing Gibbous, 82% visible
Pressure 30.49 in
Visibility 5.0 miles
Clouds Scattered Clouds 4800 ft
Overcast 5500 ft
Windchill 12 °F
Dew Point 10 °F
Humidity 89%
Rainfall 0.00 in
Snow Depth Not available.
UV 0 out of 12
Pollen .50 out of 12
Air Quality Not available.
Flu Activity Not available.
METAR KFEP 010315Z AUTO 00000KT 5SM -SN SCT048 OVC055 M12/M13 A3049 RMK AO2 T11161132

More Conditions Fewer Conditions

Pressure 30.49 in
Visibility 5.0 miles
Clouds Scattered Clouds 4800 ft
Overcast 5500 ft
Windchill 12 °F
Dew Point 10 °F
Humidity 89%
Rainfall 0.00 in
Snow Depth Not available.
UV 0 out of 12
Pollen .50 out of 12
Air Quality Not available.
Flu Activity Not available.
METAR KFEP 010315Z AUTO 00000KT 5SM -SN SCT048 OVC055 M12/M13 A3049 RMK AO2 T11161132

More Conditions Fewer Conditions

10-Day Weather Forecast

Almanac

Astronomy

Feb. 28, 2015 Rise Set
Actual Time
Civil Twilight
Nautical Twilight
Astronomical Twilight
Moon
Length of Visible Light
Length of Day
Tomorrow will be .
, % of the Moon is Illuminated

Today's Extremes

State Highs State Lows

Community

WunderPhotos

Upload Photos

1,801,280 photos uploaded!

WunderBlogs® & News

Nearby

Air Quality

  Air Quality AQ Index Pollutant
Not available.

Snow Depth

Station Depth Elevation

Earthquake Activity

City Distance Mag. Time & Date
Minimum magnitude displayed is 2.5.

Coastal Water Temperatures

Place Temperature

Nearby Weather Stations